Time;durP1;ratioP1;P1;durP2;ratioP2;P2;SDS_P1;SDS_P2;PMS_P1;PMS_P2;Temp;Humidity;BMP_temperature;BMP_pressure;BME280_temperature;BME280_humidity;BME280_pressure;Samples;Min_cycle;Max_cycle;Signal;HPM_P1;HPM_P2
2023/02/03 00:00:44;;;;;;;17.20;3.05;;;10.70;99.90;;;;;;4998314;23;20191;-93
2023/02/03 00:02:45;;;;;;;12.85;2.40;;;10.60;99.90;;;;;;5045979;23;20232;-92
2023/02/03 00:04:46;;;;;;;15.25;2.53;;;10.50;99.90;;;;;;5022123;23;20162;-93
2023/02/03 00:06:47;;;;;;;14.75;2.45;;;10.50;99.90;;;;;;5021917;23;20155;-92
2023/02/03 00:08:48;;;;;;;10.63;1.80;;;10.60;99.90;;;;;;4998264;23;20207;-93
2023/02/03 00:10:50;;;;;;;13.95;3.30;;;10.60;99.90;;;;;;4998321;23;20546;-94
2023/02/03 00:12:51;;;;;;;17.55;3.53;;;10.80;99.90;;;;;;4998478;23;20468;-93
2023/02/03 00:14:52;;;;;;;18.70;2.58;;;10.70;99.90;;;;;;4998410;23;20158;-93
2023/02/03 00:16:53;;;;;;;14.48;2.45;;;10.70;99.90;;;;;;4998130;23;20159;-94
2023/02/03 00:18:53;;;;;;;16.55;2.35;;;10.60;99.90;;;;;;4998238;23;20172;-92
2023/02/03 00:20:54;;;;;;;13.90;2.22;;;10.60;99.90;;;;;;5046160;23;20684;-92
2023/02/03 00:23:05;;;;;;;15.07;2.50;;;10.70;99.90;;;;;;5022115;23;20177;-93
2023/02/03 00:25:06;;;;;;;14.73;2.45;;;10.60;99.90;;;;;;4998607;23;20171;-93
2023/02/03 00:27:06;;;;;;;12.18;2.17;;;10.60;99.90;;;;;;5021771;23;20154;-92
2023/02/03 00:29:08;;;;;;;13.93;2.17;;;10.70;99.90;;;;;;4998406;23;20445;-92
2023/02/03 00:31:17;;;;;;;12.80;2.22;;;10.70;99.90;;;;;;4998147;23;20152;-93
2023/02/03 00:33:20;;;;;;;14.15;2.95;;;10.80;99.90;;;;;;4998274;23;20249;-91
2023/02/03 00:35:21;;;;;;;14.27;1.67;;;10.70;99.90;;;;;;4998027;23;20161;-94
2023/02/03 00:37:22;;;;;;;16.20;2.00;;;10.50;99.90;;;;;;5021619;23;20159;-93
2023/02/03 00:39:23;;;;;;;6.95;1.73;;;10.60;99.90;;;;;;5021866;23;20178;-93
2023/02/03 00:41:28;;;;;;;7.65;2.00;;;10.60;99.90;;;;;;4997610;23;20191;-93
2023/02/03 00:43:29;;;;;;;15.55;1.70;;;10.70;99.90;;;;;;5022078;23;20162;-94
2023/02/03 00:45:30;;;;;;;20.15;2.53;;;10.70;99.90;;;;;;4998162;23;20172;-93
2023/02/03 00:47:30;;;;;;;16.20;2.40;;;10.60;99.90;;;;;;5021926;23;20205;-92
2023/02/03 00:49:32;;;;;;;15.30;2.05;;;10.50;99.90;;;;;;4997981;23;20156;-94
2023/02/03 00:51:33;;;;;;;17.70;2.10;;;10.50;99.90;;;;;;5021720;23;20242;-93
2023/02/03 00:53:34;;;;;;;18.38;2.30;;;10.50;99.90;;;;;;5021811;23;20166;-92
2023/02/03 00:55:35;;;;;;;16.63;2.50;;;10.60;99.90;;;;;;4998215;23;20208;-92
2023/02/03 00:57:36;;;;;;;13.13;2.20;;;10.60;99.90;;;;;;4997920;23;20159;-94
2023/02/03 00:59:37;;;;;;;13.30;1.90;;;10.80;99.90;;;;;;5021816;23;20489;-93
2023/02/03 01:01:37;;;;;;;11.70;1.73;;;10.70;99.90;;;;;;4997963;23;20191;-92
2023/02/03 01:03:38;;;;;;;11.65;1.80;;;10.40;99.90;;;;;;5021704;23;20212;-92
2023/02/03 01:05:39;;;;;;;13.13;2.20;;;10.30;99.90;;;;;;5021690;23;20638;-93
2023/02/03 01:07:40;;;;;;;18.10;2.03;;;10.20;99.90;;;;;;5021307;23;20161;-92
2023/02/03 01:09:40;;;;;;;15.13;2.10;;;10.20;99.90;;;;;;5021647;23;20617;-92
2023/02/03 01:11:41;;;;;;;12.20;1.75;;;10.20;99.90;;;;;;5021477;23;20164;-93
2023/02/03 01:13:43;;;;;;;20.23;2.38;;;10.20;99.90;;;;;;4997867;23;20166;-92
2023/02/03 01:15:47;;;;;;;9.93;1.60;;;10.30;99.90;;;;;;4997991;23;20245;-91
2023/02/03 01:17:48;;;;;;;13.02;1.92;;;10.30;99.90;;;;;;5021679;23;20202;-93
2023/02/03 01:19:50;;;;;;;15.88;2.10;;;10.50;99.90;;;;;;4997513;23;20216;-93
2023/02/03 01:21:50;;;;;;;14.93;2.15;;;10.50;99.90;;;;;;4997634;23;20623;-92
2023/02/03 01:23:52;;;;;;;15.85;2.05;;;10.70;99.90;;;;;;4998001;23;20156;-91
2023/02/03 01:25:53;;;;;;;14.93;2.03;;;10.80;99.90;;;;;;5021565;23;20166;-93
2023/02/03 01:27:54;;;;;;;19.83;2.33;;;10.70;99.90;;;;;;4997316;23;20175;-93
2023/02/03 01:29:55;;;;;;;13.38;1.98;;;10.80;99.90;;;;;;4997637;23;20160;-93
2023/02/03 01:31:55;;;;;;;15.05;2.15;;;10.80;99.90;;;;;;4997714;23;20159;-93
2023/02/03 01:33:56;;;;;;;19.50;2.58;;;10.80;99.90;;;;;;4997790;23;20159;-92
2023/02/03 01:36:00;;;;;;;13.43;1.80;;;10.80;99.90;;;;;;4997662;23;20156;-92
2023/02/03 01:38:00;;;;;;;9.98;1.45;;;10.70;99.90;;;;;;4997808;23;20178;-92
2023/02/03 01:40:01;;;;;;;12.23;2.05;;;10.70;99.90;;;;;;4997801;23;20179;-93
2023/02/03 01:42:02;;;;;;;16.65;2.13;;;10.70;99.90;;;;;;4997776;23;20548;-93
2023/02/03 01:44:31;;;;;;;12.43;1.88;;;10.60;99.90;;;;;;4998168;23;20155;-93
2023/02/03 01:46:32;;;;;;;15.20;1.73;;;10.60;99.90;;;;;;4986544;23;20183;-94
2023/02/03 01:48:34;;;;;;;19.80;2.33;;;10.60;99.90;;;;;;5021340;23;20220;-92
2023/02/03 01:50:36;;;;;;;10.93;2.05;;;10.70;99.90;;;;;;4997511;23;20163;-93
2023/02/03 01:52:40;;;;;;;12.98;2.17;;;10.80;99.90;;;;;;4997383;23;20213;-92
2023/02/03 01:54:43;;;;;;;12.43;1.52;;;10.70;99.90;;;;;;5021256;23;20534;-92
2023/02/03 01:56:52;;;;;;;13.20;1.60;;;10.60;99.90;;;;;;5020964;23;20162;-93
2023/02/03 01:58:53;;;;;;;13.15;1.73;;;10.50;99.90;;;;;;4997578;23;20182;-93
2023/02/03 02:00:56;;;;;;;14.23;2.20;;;10.60;99.90;;;;;;4997524;23;20228;-94
2023/02/03 02:02:59;;;;;;;13.75;1.98;;;10.60;99.90;;;;;;4997457;23;20226;-93
2023/02/03 02:05:38;;;;;;;15.60;1.60;;;10.50;99.90;;;;;;4997599;23;20160;-93
2023/02/03 02:07:40;;;;;;;11.32;1.40;;;10.60;99.90;;;;;;5021140;23;20163;-94
2023/02/03 02:09:44;;;;;;;14.85;1.85;;;10.60;99.90;;;;;;4997913;23;20155;-93
2023/02/03 02:11:45;;;;;;;14.60;1.85;;;10.50;99.90;;;;;;4997646;23;20159;-93
2023/02/03 02:13:47;;;;;;;7.25;1.70;;;10.60;99.90;;;;;;5020910;23;20280;-93
2023/02/03 02:16:15;;;;;;;15.82;1.83;;;10.80;99.90;;;;;;4997321;23;20166;-93
2023/02/03 02:18:59;;;;;;;13.25;1.88;;;10.70;99.90;;;;;;4997372;23;20241;-94
2023/02/03 02:21:00;;;;;;;14.90;1.65;;;10.50;99.90;;;;;;4983962;23;20248;-92
2023/02/03 02:23:19;;;;;;;12.55;1.90;;;10.50;99.90;;;;;;5021093;23;20158;-92
2023/02/03 02:25:51;;;;;;;14.20;2.10;;;10.50;99.90;;;;;;5021008;23;20230;-93
2023/02/03 02:28:01;;;;;;;13.48;1.58;;;10.70;99.90;;;;;;5020990;23;20178;-93
2023/02/03 02:30:30;;;;;;;10.30;1.50;;;10.80;99.90;;;;;;5021030;23;20168;-92
2023/02/03 02:32:46;;;;;;;10.00;1.50;;;10.70;99.90;;;;;;5020926;23;20155;-92
2023/02/03 02:34:50;;;;;;;9.85;1.40;;;10.60;99.90;;;;;;5020987;23;20163;-95
2023/02/03 02:37:25;;;;;;;17.73;2.03;;;10.70;99.90;;;;;;5021470;23;20677;-94
2023/02/03 02:39:45;;;;;;;12.50;2.30;;;10.70;99.90;;;;;;4993792;23;20163;-93
2023/02/03 02:41:48;;;;;;;11.95;1.60;;;10.60;99.90;;;;;;4997731;23;20179;-93
2023/02/03 02:44:14;;;;;;;11.05;1.55;;;10.50;99.90;;;;;;5021363;23;20230;-92
2023/02/03 02:46:24;;;;;;;11.27;1.50;;;10.50;99.90;;;;;;4997181;23;20174;-92
2023/02/03 02:48:39;;;;;;;4.95;1.00;;;10.40;99.90;;;;;;4998039;23;20244;-92
2023/02/03 02:50:43;;;;;;;17.13;1.58;;;10.40;99.90;;;;;;4997193;23;20156;-92
2023/02/03 02:52:47;;;;;;;11.13;1.55;;;10.40;99.90;;;;;;4997060;23;20604;-91
2023/02/03 02:54:51;;;;;;;14.15;1.58;;;10.40;99.90;;;;;;5020747;23;20161;-94
2023/02/03 02:56:56;;;;;;;8.93;1.30;;;10.60;99.90;;;;;;4996829;23;20159;-92
2023/02/03 02:59:00;;;;;;;6.22;1.35;;;10.70;99.90;;;;;;4997092;23;20171;-91
2023/02/03 03:01:02;;;;;;;14.52;1.25;;;10.50;99.90;;;;;;5020977;23;20187;-92
2023/02/03 03:03:33;;;;;;;16.90;1.60;;;10.50;99.90;;;;;;4996992;23;20148;-92
2023/02/03 03:05:34;;;;;;;9.00;1.35;;;10.50;99.90;;;;;;4991225;23;20194;-92
2023/02/03 03:07:46;;;;;;;14.15;1.98;;;10.60;99.90;;;;;;5020723;23;20155;-93
2023/02/03 03:09:54;;;;;;;7.43;1.17;;;10.50;99.90;;;;;;4997409;23;20168;-93
2023/02/03 03:12:09;;;;;;;9.13;1.55;;;10.40;99.90;;;;;;5021154;23;20181;-92
2023/02/03 03:14:14;;;;;;;15.32;1.48;;;10.50;99.90;;;;;;4997276;23;20152;-92
2023/02/03 03:16:17;;;;;;;8.40;1.17;;;10.70;99.90;;;;;;5020907;23;20595;-91
2023/02/03 03:18:24;;;;;;;4.65;0.88;;;10.70;99.90;;;;;;4997009;23;20807;-95
2023/02/03 03:20:29;;;;;;;10.80;1.50;;;10.60;99.90;;;;;;5020511;23;20549;-93
2023/02/03 03:22:35;;;;;;;10.60;1.40;;;10.50;99.90;;;;;;4997027;23;20199;-94
2023/02/03 03:24:46;;;;;;;10.10;1.08;;;10.50;99.90;;;;;;5020966;23;20220;-92
2023/02/03 03:26:49;;;;;;;9.07;1.35;;;10.60;99.90;;;;;;4996970;23;20576;-92
2023/02/03 03:29:02;;;;;;;7.30;0.90;;;10.60;99.90;;;;;;4997048;23;20666;-92
2023/02/03 03:31:03;;;;;;;11.63;1.48;;;10.60;99.90;;;;;;5020779;23;20174;-91
2023/02/03 03:33:06;;;;;;;9.40;1.30;;;10.70;99.90;;;;;;4997300;23;20171;-92
2023/02/03 03:35:07;;;;;;;7.95;1.45;;;10.80;99.90;;;;;;5020485;23;20151;-92
2023/02/03 03:37:12;;;;;;;10.45;1.30;;;10.70;99.90;;;;;;5021022;23;20170;-91
2023/02/03 03:39:22;;;;;;;12.75;1.70;;;10.80;99.90;;;;;;4997250;23;20179;-92
2023/02/03 03:41:38;;;;;;;14.82;1.80;;;10.80;99.90;;;;;;5020890;23;20638;-92
2023/02/03 03:43:43;;;;;;;11.07;1.08;;;10.70;99.90;;;;;;5020748;23;20159;-93
2023/02/03 03:46:18;;;;;;;13.93;1.23;;;10.70;99.90;;;;;;4997186;23;20213;-93
2023/02/03 03:48:26;;;;;;;10.25;1.48;;;10.90;99.90;;;;;;4981705;23;20178;-93
2023/02/03 03:50:31;;;;;;;4.55;1.02;;;10.90;99.90;;;;;;4996971;23;20229;-93
2023/02/03 03:52:35;;;;;;;10.32;1.30;;;10.90;99.90;;;;;;4996924;23;20198;-92
2023/02/03 03:54:38;;;;;;;7.07;1.45;;;10.80;99.90;;;;;;4997045;23;20507;-92
2023/02/03 03:57:06;;;;;;;6.30;1.15;;;10.80;99.90;;;;;;5020821;23;20246;-94
2023/02/03 03:59:10;;;;;;;7.18;1.15;;;11.00;99.90;;;;;;4996913;23;20270;-92
2023/02/03 04:01:14;;;;;;;11.30;1.33;;;11.00;99.90;;;;;;5020660;23;20274;-93
2023/02/03 04:03:23;;;;;;;8.23;1.25;;;11.00;99.90;;;;;;4997337;23;20152;-92
2023/02/03 04:05:25;;;;;;;11.25;1.08;;;10.90;99.90;;;;;;4996840;23;20167;-92
2023/02/03 04:07:44;;;;;;;10.73;1.08;;;10.60;99.90;;;;;;5020567;23;20626;-93
2023/02/03 04:09:45;;;;;;;5.70;1.05;;;10.50;99.90;;;;;;4996915;23;20167;-93
2023/02/03 04:12:01;;;;;;;10.27;1.27;;;10.60;99.90;;;;;;5020572;23;20520;-92
2023/02/03 04:14:03;;;;;;;9.60;1.30;;;10.60;99.90;;;;;;4996917;23;20159;-93
2023/02/03 04:16:04;;;;;;;5.80;1.23;;;10.60;99.90;;;;;;5021002;23;20203;-94
2023/02/03 04:18:05;;;;;;;9.10;1.15;;;10.60;99.90;;;;;;4998265;23;20175;-93
2023/02/03 04:20:06;;;;;;;11.05;1.10;;;10.60;99.90;;;;;;4998106;23;20227;-93
2023/02/03 04:22:07;;;;;;;11.60;1.20;;;10.60;99.90;;;;;;4998971;23;20223;-93
2023/02/03 04:24:08;;;;;;;8.30;1.45;;;10.80;99.90;;;;;;4998469;23;20603;-95
2023/02/03 04:26:08;;;;;;;5.65;1.08;;;10.60;99.90;;;;;;5021787;23;20163;-93
2023/02/03 04:28:09;;;;;;;8.55;1.10;;;10.80;99.90;;;;;;4998102;23;20236;-93
2023/02/03 04:30:11;;;;;;;6.50;1.60;;;10.60;99.90;;;;;;4998422;23;20224;-92
2023/02/03 04:32:11;;;;;;;4.10;0.90;;;10.50;99.90;;;;;;4998455;23;20179;-93
2023/02/03 04:34:12;;;;;;;8.52;1.20;;;10.60;99.90;;;;;;5022376;23;20594;-93
2023/02/03 04:36:14;;;;;;;6.63;1.05;;;10.60;99.90;;;;;;4998760;23;20184;-93
2023/02/03 04:38:14;;;;;;;9.93;1.10;;;10.70;99.90;;;;;;5022019;23;20209;-94
2023/02/03 04:40:15;;;;;;;10.45;1.20;;;10.70;99.90;;;;;;4998360;23;20519;-92
2023/02/03 04:42:17;;;;;;;12.95;1.05;;;10.50;99.90;;;;;;4998373;23;20587;-92
2023/02/03 04:44:17;;;;;;;6.50;0.93;;;10.40;99.90;;;;;;4998585;23;20156;-93
2023/02/03 04:46:18;;;;;;;4.78;0.90;;;10.40;99.90;;;;;;5021739;23;20238;-92
2023/02/03 04:48:19;;;;;;;6.47;0.90;;;10.50;99.90;;;;;;4998013;23;20649;-93
2023/02/03 04:50:20;;;;;;;7.43;0.82;;;10.50;99.90;;;;;;5021837;23;20238;-93
2023/02/03 04:52:21;;;;;;;8.32;1.00;;;10.40;99.90;;;;;;4997982;23;20203;-94
2023/02/03 04:54:21;;;;;;;7.07;1.08;;;10.40;99.90;;;;;;4998222;23;20198;-94
2023/02/03 04:56:22;;;;;;;6.13;1.52;;;10.50;99.90;;;;;;5021590;23;20151;-91
2023/02/03 04:58:25;;;;;;;7.93;1.23;;;10.50;99.90;;;;;;5021385;23;20638;-93
2023/02/03 05:00:27;;;;;;;5.35;1.10;;;10.60;99.90;;;;;;4997900;23;20191;-93
2023/02/03 05:02:28;;;;;;;8.52;1.38;;;10.50;99.90;;;;;;4998102;23;20639;-94
2023/02/03 05:04:29;;;;;;;8.32;1.20;;;10.60;99.90;;;;;;5021540;23;20183;-93
2023/02/03 05:06:31;;;;;;;7.35;1.15;;;10.60;99.90;;;;;;4997930;23;20158;-93
2023/02/03 05:08:32;;;;;;;10.18;1.38;;;10.60;99.90;;;;;;4997870;23;20206;-93
2023/02/03 05:10:33;;;;;;;3.83;0.80;;;10.70;99.90;;;;;;4997688;23;20151;-94
2023/02/03 05:12:33;;;;;;;6.53;1.00;;;10.60;99.90;;;;;;4998123;23;20156;-94
2023/02/03 05:14:34;;;;;;;13.93;1.15;;;10.50;99.90;;;;;;4997845;23;20155;-92
2023/02/03 05:16:35;;;;;;;5.72;1.02;;;10.60;99.90;;;;;;4997706;23;20614;-92
2023/02/03 05:18:36;;;;;;;8.88;1.27;;;10.50;99.90;;;;;;4997720;23;20180;-93
2023/02/03 05:20:36;;;;;;;4.90;0.98;;;10.50;99.90;;;;;;4997574;23;20199;-93
2023/02/03 05:22:37;;;;;;;8.68;0.93;;;10.50;99.90;;;;;;4997547;23;20239;-93
2023/02/03 05:24:38;;;;;;;8.82;0.98;;;10.40;99.90;;;;;;4997534;23;20167;-92
2023/02/03 05:26:39;;;;;;;6.50;1.00;;;10.40;99.90;;;;;;4997448;23;20248;-93
2023/02/03 05:28:39;;;;;;;8.57;1.30;;;10.30;99.90;;;;;;4997688;23;20223;-93
2023/02/03 05:30:40;;;;;;;7.07;0.90;;;10.40;99.90;;;;;;4997747;23;20155;-91
2023/02/03 05:32:41;;;;;;;10.82;1.45;;;10.40;99.90;;;;;;5021760;23;20159;-93
2023/02/03 05:34:41;;;;;;;6.63;1.02;;;10.30;99.90;;;;;;5021565;23;20203;-93
2023/02/03 05:36:42;;;;;;;8.75;0.90;;;10.40;99.90;;;;;;5022138;23;20159;-94
2023/02/03 05:38:43;;;;;;;8.18;1.00;;;10.50;99.90;;;;;;4997798;23;20178;-92
2023/02/03 05:43:07;;;;;;;4.70;1.00;;;10.40;99.90;;;;;;5021650;23;20159;-93
2023/02/03 05:45:08;;;;;;;9.85;1.25;;;10.30;99.90;;;;;;4997624;23;20198;-93
2023/02/03 05:47:08;;;;;;;9.20;1.20;;;10.40;99.90;;;;;;5021260;23;20163;-92
2023/02/03 05:49:09;;;;;;;9.18;1.02;;;10.40;99.90;;;;;;5021380;23;20209;-92
2023/02/03 05:51:10;;;;;;;8.65;1.55;;;10.50;99.90;;;;;;4997463;23;20163;-95
2023/02/03 05:53:11;;;;;;;5.13;1.30;;;10.40;99.90;;;;;;5021169;23;20194;-93
2023/02/03 05:55:11;;;;;;;6.07;1.00;;;10.30;99.90;;;;;;4997468;23;20191;-93
2023/02/03 05:57:12;;;;;;;5.05;1.10;;;10.30;99.90;;;;;;4997428;23;20523;-94
2023/02/03 05:59:13;;;;;;;3.88;0.75;;;10.40;99.90;;;;;;4997527;23;20175;-93
2023/02/03 06:01:14;;;;;;;5.70;0.93;;;10.60;99.90;;;;;;4997881;23;20222;-94
2023/02/03 06:03:15;;;;;;;12.15;1.27;;;10.70;99.90;;;;;;4997536;23;20177;-93
2023/02/03 06:05:15;;;;;;;10.25;1.10;;;10.80;99.90;;;;;;5021206;23;20163;-92
2023/02/03 06:07:16;;;;;;;12.07;1.33;;;10.60;99.90;;;;;;5021244;23;20252;-93
2023/02/03 06:09:17;;;;;;;10.02;1.30;;;10.40;99.90;;;;;;4997726;23;20179;-93
2023/02/03 06:11:18;;;;;;;4.13;0.93;;;10.40;99.90;;;;;;4997477;23;20155;-94
2023/02/03 06:13:18;;;;;;;49.80;22.10;;;10.50;99.90;;;;;;5045148;23;20175;-92
2023/02/03 06:15:19;;;;;;;26.70;14.10;;;10.50;99.90;;;;;;4997519;23;20183;-93
2023/02/03 06:17:20;;;;;;;36.85;20.45;;;10.40;99.90;;;;;;4997404;23;20496;-92
2023/02/03 06:19:21;;;;;;;15.05;9.25;;;10.30;99.90;;;;;;4997080;23;20175;-93
2023/02/03 06:21:21;;;;;;;11.70;4.43;;;10.30;99.90;;;;;;4997231;23;20274;-92
2023/02/03 06:23:22;;;;;;;12.40;7.30;;;10.40;99.90;;;;;;5020823;23;20201;-92
2023/02/03 06:25:23;;;;;;;17.17;8.88;;;10.40;99.90;;;;;;5021136;23;20194;-92
2023/02/03 06:27:24;;;;;;;10.93;3.70;;;10.50;99.90;;;;;;4997360;23;20192;-91
2023/02/03 06:29:24;;;;;;;9.98;1.88;;;10.50;99.90;;;;;;5021049;23;20182;-92
2023/02/03 06:31:25;;;;;;;12.30;2.08;;;10.50;99.90;;;;;;5021293;23;20170;-92
2023/02/03 06:33:26;;;;;;;11.38;1.52;;;10.60;99.90;;;;;;5021223;23;20239;-92
2023/02/03 06:35:27;;;;;;;12.43;3.83;;;10.60;99.90;;;;;;4997529;23;20222;-92
2023/02/03 06:37:28;;;;;;;11.05;1.60;;;10.80;99.90;;;;;;5020978;23;20151;-93
2023/02/03 06:39:29;;;;;;;8.52;2.45;;;10.70;99.90;;;;;;4997109;23;20155;-93
2023/02/03 06:41:30;;;;;;;6.97;2.78;;;10.80;99.90;;;;;;4997353;23;20191;-91
2023/02/03 06:43:30;;;;;;;13.32;1.85;;;10.80;99.90;;;;;;4997670;23;20156;-93
2023/02/03 06:45:31;;;;;;;9.73;1.30;;;10.70;99.90;;;;;;5021005;23;20640;-93
2023/02/03 06:47:32;;;;;;;6.55;1.30;;;10.70;99.90;;;;;;5020921;23;20287;-94
2023/02/03 06:49:33;;;;;;;8.05;2.38;;;10.70;99.90;;;;;;5020943;23;20159;-92
2023/02/03 06:51:34;;;;;;;9.38;4.90;;;10.50;99.90;;;;;;4997316;23;20250;-91
2023/02/03 06:53:34;;;;;;;13.15;3.92;;;10.40;99.90;;;;;;5020971;23;20190;-92
2023/02/03 06:55:35;;;;;;;14.57;2.85;;;10.30;99.90;;;;;;4997283;23;20159;-91
2023/02/03 06:57:43;;;;;;;24.42;14.15;;;10.40;99.90;;;;;;5020812;23;20151;-91
2023/02/03 06:59:44;;;;;;;39.80;24.98;;;10.40;99.90;;;;;;4997329;23;20198;-92
2023/02/03 07:01:44;;;;;;;12.30;3.95;;;10.40;99.90;;;;;;4997446;23;20175;-92
2023/02/03 07:03:45;;;;;;;9.23;1.67;;;10.40;99.90;;;;;;4997764;23;20503;-90
2023/02/03 07:05:46;;;;;;;7.45;1.67;;;10.50;99.90;;;;;;4997568;23;20246;-92
2023/02/03 07:07:47;;;;;;;7.95;3.00;;;10.60;99.90;;;;;;4997061;23;20172;-92
2023/02/03 07:09:48;;;;;;;7.32;1.13;;;10.60;99.90;;;;;;4997406;23;20166;-92
2023/02/03 07:11:48;;;;;;;12.55;5.85;;;10.40;99.90;;;;;;4997235;23;20618;-92
2023/02/03 07:13:50;;;;;;;16.88;8.38;;;10.30;99.90;;;;;;4997548;23;20171;-92
2023/02/03 07:15:51;;;;;;;13.13;4.75;;;10.20;99.90;;;;;;5021568;23;20155;-92
2023/02/03 07:17:53;;;;;;;11.85;3.70;;;10.20;99.90;;;;;;5020910;23;20198;-91
2023/02/03 07:23:16;;;;;;;17.50;7.63;;;10.50;99.90;;;;;;5036736;23;20169;-94
2023/02/03 07:25:39;;;;;;;8.00;1.73;;;10.60;99.90;;;;;;4968555;23;20563;-94
2023/02/03 07:27:46;;;;;;;12.68;2.00;;;10.60;99.90;;;;;;4998344;23;20174;-94
2023/02/03 07:30:01;;;;;;;8.98;1.88;;;10.50;99.90;;;;;;4997822;23;20170;-94
2023/02/03 07:32:25;;;;;;;16.35;9.35;;;10.50;99.90;;;;;;5021648;23;20155;-94
2023/02/03 07:34:44;;;;;;;13.75;3.08;;;10.40;99.90;;;;;;5032303;23;20210;-95
2023/02/03 07:37:05;;;;;;;21.73;6.25;;;10.30;99.90;;;;;;5015778;23;20158;-94
2023/02/03 07:39:42;;;;;;;;;;;;;;;;;;;;;
2023/02/03 07:42:00;;;;;;;12.32;6.28;;;10.30;99.90;;;;;;5050065;23;20223;-95
2023/02/03 07:44:22;;;;;;;7.90;2.13;;;10.30;99.90;;;;;;5022063;23;20242;-93
2023/02/03 07:46:54;;;;;;;10.07;3.45;;;10.30;99.90;;;;;;5023868;23;20295;-94
2023/02/03 07:48:55;;;;;;;10.05;2.65;;;10.30;99.90;;;;;;5021016;23;20171;-94
2023/02/03 07:50:57;;;;;;;10.95;2.63;;;10.30;99.90;;;;;;5022331;23;20167;-93
2023/02/03 07:52:58;;;;;;;8.02;1.60;;;10.50;99.90;;;;;;4998683;23;20183;-94
2023/02/03 07:54:59;;;;;;;15.63;5.60;;;10.40;99.90;;;;;;5022859;23;20623;-94
2023/02/03 07:57:00;;;;;;;13.77;4.20;;;10.40;99.90;;;;;;5023959;23;20152;-94
2023/02/03 07:59:01;;;;;;;11.43;2.70;;;10.60;99.90;;;;;;5022384;23;20251;-94
2023/02/03 08:01:15;;;;;;;10.85;2.58;;;10.60;99.90;;;;;;4998973;23;20192;-93
2023/02/03 08:03:16;;;;;;;13.80;4.40;;;10.80;99.90;;;;;;4999481;23;20156;-94
2023/02/03 08:05:17;;;;;;;8.93;5.18;;;10.90;99.90;;;;;;5024686;23;20155;-95
2023/02/03 08:07:18;;;;;;;9.90;1.58;;;10.70;99.90;;;;;;5002194;23;20208;-95
2023/02/03 08:09:19;;;;;;;8.23;1.50;;;10.70;99.90;;;;;;5001804;23;20187;-95
2023/02/03 08:11:20;;;;;;;8.25;1.23;;;10.60;99.90;;;;;;4999403;23;20528;-93
2023/02/03 08:13:21;;;;;;;5.20;1.00;;;10.70;99.90;;;;;;4999348;23;20222;-93
2023/02/03 08:15:25;;;;;;;6.53;1.58;;;10.70;99.90;;;;;;5023703;23;20154;-96
2023/02/03 08:17:26;;;;;;;11.02;1.45;;;10.60;99.90;;;;;;4998673;23;20155;-95
2023/02/03 08:19:27;;;;;;;13.75;2.30;;;10.60;99.90;;;;;;5022772;23;20245;-95
2023/02/03 08:21:27;;;;;;;20.98;11.93;;;10.60;99.90;;;;;;5022148;23;20234;-95
2023/02/03 08:23:28;;;;;;;11.10;5.50;;;10.70;99.90;;;;;;4998651;23;20159;-92
2023/02/03 08:25:30;;;;;;;30.95;19.63;;;10.70;99.90;;;;;;5022107;23;20155;-93
2023/02/03 08:27:33;;;;;;;19.10;9.07;;;10.60;99.90;;;;;;4998447;23;20160;-93
2023/02/03 08:29:34;;;;;;;21.48;9.07;;;10.50;99.90;;;;;;4998402;23;20164;-93
2023/02/03 08:31:35;;;;;;;7.15;2.65;;;10.60;99.90;;;;;;4998562;23;20182;-94
2023/02/03 08:33:38;;;;;;;18.08;4.47;;;10.60;99.90;;;;;;4998280;23;20580;-93
2023/02/03 08:35:39;;;;;;;6.28;2.08;;;10.60;99.90;;;;;;4998305;23;20159;-95
2023/02/03 08:37:43;;;;;;;14.32;4.15;;;10.90;99.90;;;;;;4998368;23;20166;-93
2023/02/03 08:39:44;;;;;;;18.52;10.60;;;11.00;99.90;;;;;;5022006;23;20159;-94
2023/02/03 08:41:45;;;;;;;11.32;3.38;;;11.00;99.90;;;;;;4998260;23;20278;-92
2023/02/03 08:43:46;;;;;;;7.35;2.53;;;10.90;99.90;;;;;;4998367;23;20187;-93
2023/02/03 08:45:46;;;;;;;4.55;1.33;;;10.90;99.90;;;;;;5021964;23;20606;-92
2023/02/03 08:47:47;;;;;;;9.00;1.30;;;11.00;99.90;;;;;;4999285;23;20183;-93
2023/02/03 08:49:48;;;;;;;5.68;1.65;;;11.00;99.90;;;;;;4998618;23;20638;-92
2023/02/03 08:51:49;;;;;;;12.23;2.45;;;11.10;99.90;;;;;;4998704;23;20553;-93
2023/02/03 08:53:50;;;;;;;6.32;1.70;;;11.00;99.90;;;;;;5023133;23;20483;-94
2023/02/03 08:55:51;;;;;;;12.70;2.03;;;11.10;99.90;;;;;;4998254;23;20158;-96
2023/02/03 08:57:52;;;;;;;11.45;0.90;;;10.90;99.90;;;;;;5021567;23;20178;-93
2023/02/03 08:59:53;;;;;;;8.50;2.08;;;11.10;99.90;;;;;;5022183;23;20158;-94
2023/02/03 09:01:54;;;;;;;9.93;3.33;;;11.20;99.90;;;;;;4997791;23;20159;-94
2023/02/03 09:03:55;;;;;;;13.50;4.78;;;11.20;99.90;;;;;;5022247;23;20151;-94
2023/02/03 09:05:56;;;;;;;7.60;1.20;;;11.10;99.90;;;;;;4997520;23;20168;-93
2023/02/03 09:07:57;;;;;;;8.05;2.15;;;11.30;99.90;;;;;;4998740;23;20182;-93
2023/02/03 09:09:58;;;;;;;4.80;1.20;;;11.30;99.90;;;;;;4998841;23;20574;-93
2023/02/03 09:12:04;;;;;;;10.23;1.40;;;11.40;99.90;;;;;;4998063;23;20164;-93
2023/02/03 09:14:04;;;;;;;104.35;64.43;;;11.50;99.90;;;;;;5021646;23;20163;-92
2023/02/03 09:16:06;;;;;;;22.50;10.35;;;11.30;99.90;;;;;;5021805;23;20159;-94
2023/02/03 09:18:07;;;;;;;7.53;1.30;;;11.30;99.90;;;;;;5022004;23;20261;-93
2023/02/03 09:20:09;;;;;;;6.80;1.00;;;11.40;99.90;;;;;;5021647;23;20158;-92
2023/02/03 09:22:09;;;;;;;12.70;5.10;;;11.50;99.90;;;;;;5021668;23;20623;-93
2023/02/03 09:24:10;;;;;;;7.22;1.98;;;11.60;99.90;;;;;;4997858;23;20154;-94
2023/02/03 09:26:14;;;;;;;7.68;1.42;;;11.60;99.90;;;;;;4998574;23;20542;-93
2023/02/03 09:28:14;;;;;;;8.52;1.60;;;11.60;99.90;;;;;;5023121;23;20234;-93
2023/02/03 09:30:15;;;;;;;7.70;1.55;;;11.50;99.90;;;;;;4998626;23;20615;-93
2023/02/03 09:32:19;;;;;;;7.22;1.55;;;11.40;99.90;;;;;;4997912;23;20163;-95
2023/02/03 09:34:20;;;;;;;10.57;2.33;;;11.50;99.90;;;;;;4997381;23;20156;-95
2023/02/03 09:36:21;;;;;;;14.27;3.33;;;11.60;99.90;;;;;;4997955;23;20293;-94
2023/02/03 09:38:23;;;;;;;9.32;1.55;;;11.60;99.90;;;;;;5021410;23;20178;-94
2023/02/03 09:40:34;;;;;;;8.07;2.70;;;11.60;99.90;;;;;;5022660;23;20186;-93
2023/02/03 09:42:58;;;;;;;11.52;1.58;;;11.60;99.90;;;;;;5021412;23;20159;-94
2023/02/03 09:45:16;;;;;;;5.90;2.40;;;11.60;99.90;;;;;;4998140;23;20224;-95
2023/02/03 09:47:35;;;;;;;11.82;1.77;;;11.50;99.90;;;;;;4997901;23;20164;-95
2023/02/03 09:49:41;;;;;;;7.55;1.75;;;11.50;99.90;;;;;;4998913;23;20159;-95
2023/02/03 09:51:54;;;;;;;6.43;1.40;;;11.60;99.90;;;;;;4997939;23;20185;-96
2023/02/03 09:54:16;;;;;;;7.75;2.30;;;11.60;99.90;;;;;;4998890;23;20167;-93
2023/02/03 09:56:26;;;;;;;8.05;1.52;;;11.50;99.90;;;;;;5022257;23;20266;-93
2023/02/03 09:58:31;;;;;;;7.43;1.92;;;11.60;99.90;;;;;;4998426;23;20742;-94
2023/02/03 10:00:43;;;;;;;9.95;1.85;;;11.50;99.90;;;;;;4997997;23;20547;-95
2023/02/03 10:03:18;;;;;;;8.27;1.60;;;11.60;99.90;;;;;;5021840;23;20178;-95
2023/02/03 10:05:39;;;;;;;6.30;1.52;;;11.80;99.90;;;;;;5030764;23;20165;-94
2023/02/03 10:07:55;;;;;;;7.22;1.25;;;11.80;99.90;;;;;;5035430;23;20219;-92
2023/02/03 10:10:29;;;;;;;15.20;2.05;;;11.70;99.90;;;;;;5016223;23;20146;-95
2023/02/03 10:12:49;;;;;;;9.77;1.63;;;11.90;99.90;;;;;;4951315;24;20243;-94
2023/02/03 10:15:10;;;;;;;6.97;1.42;;;11.80;99.90;;;;;;5021837;23;20208;-96
2023/02/03 10:17:37;;;;;;;7.35;1.50;;;12.10;99.90;;;;;;4992387;23;20163;-93
2023/02/03 10:19:44;;;;;;;8.13;1.52;;;12.30;99.90;;;;;;5022991;23;20171;-96
2023/02/03 10:21:51;;;;;;;9.18;1.55;;;12.20;99.90;;;;;;5022931;23;20226;-95
2023/02/03 10:23:57;;;;;;;6.00;1.30;;;12.20;99.90;;;;;;4997492;23;20190;-96
2023/02/03 10:26:06;;;;;;;8.02;1.58;;;12.20;99.90;;;;;;4998912;23;20164;-96
2023/02/03 10:28:17;;;;;;;6.85;1.45;;;12.10;99.90;;;;;;4998176;23;20262;-95
2023/02/03 10:30:23;;;;;;;6.00;1.40;;;12.20;99.90;;;;;;5022444;23;20147;-95
2023/02/03 10:32:26;;;;;;;9.88;2.35;;;12.10;99.90;;;;;;4999605;23;20184;-93
2023/02/03 10:34:29;;;;;;;16.23;6.10;;;12.10;99.90;;;;;;4999308;23;20484;-94
2023/02/03 10:36:58;;;;;;;7.55;1.90;;;12.30;99.90;;;;;;5021816;23;20219;-95
2023/02/03 10:39:10;;;;;;;5.63;1.42;;;12.30;99.90;;;;;;5021212;23;20175;-95
2023/02/03 10:41:12;;;;;;;6.00;1.33;;;12.30;99.90;;;;;;5021344;23;20201;-95
2023/02/03 10:45:36;;;;;;;9.48;3.78;;;11.90;99.90;;;;;;5021207;23;20175;-95
2023/02/03 10:47:44;;;;;;;10.88;2.88;;;12.10;99.90;;;;;;4997321;23;20160;-94
2023/02/03 10:49:45;;;;;;;10.65;1.58;;;12.10;99.90;;;;;;5021402;23;20475;-95
2023/02/03 10:52:00;;;;;;;9.02;1.50;;;12.20;99.90;;;;;;4997971;23;20163;-95
2023/02/03 10:54:01;;;;;;;6.78;1.90;;;12.20;99.90;;;;;;5022289;23;20158;-94
2023/02/03 10:56:18;;;;;;;6.68;1.90;;;12.10;99.90;;;;;;4998017;23;20551;-96